createdAt,value
2017-12-05T00:00:05.818Z,67.80
2017-12-05T00:02:31.850Z,65.87
2017-12-05T00:04:58.618Z,58.45
2017-12-05T00:07:24.665Z,59.20
2017-12-05T00:09:50.716Z,63.20
2017-12-05T00:12:16.813Z,62.38
2017-12-05T00:14:43.705Z,61.67
2017-12-05T00:17:10.088Z,56.55
2017-12-05T00:19:36.162Z,55.12
2017-12-05T00:22:02.205Z,52.75
2017-12-05T00:24:28.246Z,55.58
2017-12-05T00:26:54.329Z,49.58
2017-12-05T00:29:20.513Z,54.47
2017-12-05T00:31:46.555Z,52.88
2017-12-05T00:34:12.589Z,53.95
2017-12-05T00:36:38.638Z,53.05
2017-12-05T00:39:04.688Z,45.17
2017-12-05T00:41:30.763Z,47.65
2017-12-05T00:43:56.833Z,49.50
2017-12-05T00:46:22.866Z,40.75
2017-12-05T00:48:49.575Z,50.40
2017-12-05T00:51:15.626Z,43.72
2017-12-05T00:53:41.678Z,40.50
2017-12-05T00:56:07.794Z,47.80
2017-12-05T00:58:33.856Z,48.95
2017-12-05T01:01:01.837Z,41.42
2017-12-05T01:03:28.616Z,46.30
2017-12-05T01:05:54.962Z,41.70
2017-12-05T01:08:21.022Z,43.42
2017-12-05T01:10:47.061Z,41.80
2017-12-05T01:13:13.089Z,46.55
2017-12-05T01:15:39.149Z,44.13
2017-12-05T01:18:05.198Z,49.97
2017-12-05T01:20:31.242Z,48.05
2017-12-05T01:22:57.300Z,42.45
2017-12-05T01:25:23.366Z,47.00
2017-12-05T01:27:49.414Z,51.75
2017-12-05T01:30:15.445Z,47.00
2017-12-05T01:32:41.477Z,53.58
2017-12-05T01:35:07.513Z,49.15
2017-12-05T01:37:33.586Z,54.03
2017-12-05T01:39:59.610Z,56.90
2017-12-05T01:42:25.646Z,59.47
2017-12-05T01:44:51.682Z,63.58
2017-12-05T01:47:17.732Z,51.40
2017-12-05T01:49:43.770Z,62.83
2017-12-05T01:52:09.806Z,62.25
2017-12-05T01:54:35.886Z,50.35
2017-12-05T01:57:06.787Z,50.53
2017-12-05T01:59:32.809Z,57.47
2017-12-05T02:01:58.845Z,58.38
2017-12-05T02:04:24.896Z,54.30
2017-12-05T02:06:50.949Z,51.88
2017-12-05T02:09:17.789Z,52.05
2017-12-05T02:11:43.822Z,56.33
2017-12-05T02:14:09.887Z,55.53
2017-12-05T02:16:36.714Z,51.83
2017-12-05T02:19:02.749Z,45.75
2017-12-05T02:21:28.792Z,54.85
2017-12-05T02:23:54.825Z,51.55
2017-12-05T02:26:20.890Z,55.40
2017-12-05T02:28:46.916Z,50.67
2017-12-05T02:31:13.673Z,57.80
2017-12-05T02:33:40.453Z,46.25
2017-12-05T02:36:06.525Z,56.88
2017-12-05T02:38:32.654Z,51.45
2017-12-05T02:41:08.897Z,52.00
2017-12-05T02:43:34.949Z,49.03
2017-12-05T02:46:00.996Z,52.22
2017-12-05T02:48:27.038Z,49.58
2017-12-05T02:50:53.061Z,45.40
2017-12-05T02:53:19.085Z,49.22
2017-12-05T02:55:45.115Z,51.13
2017-12-05T02:58:11.162Z,45.15
2017-12-05T03:00:37.281Z,53.38
2017-12-05T03:03:03.306Z,46.30
2017-12-05T03:05:30.091Z,50.50
2017-12-05T03:07:56.142Z,43.35
2017-12-05T03:10:22.172Z,43.72
2017-12-05T03:12:48.206Z,51.42
2017-12-05T03:15:14.253Z,44.22
2017-12-05T03:17:40.338Z,55.83
2017-12-05T03:20:06.397Z,49.80
2017-12-05T03:22:32.473Z,42.88
2017-12-05T03:24:58.518Z,36.17
2017-12-05T03:27:24.561Z,47.17
2017-12-05T03:29:50.602Z,42.88
2017-12-05T03:32:16.636Z,41.72
2017-12-05T03:34:42.675Z,45.65
2017-12-05T03:37:08.849Z,44.80
2017-12-05T03:39:35.134Z,48.63
2017-12-05T03:42:03.248Z,40.95
2017-12-05T03:44:29.498Z,38.13
2017-12-05T03:46:56.488Z,34.92
2017-12-05T03:49:22.711Z,33.00
2017-12-05T03:51:49.679Z,36.47
2017-12-05T03:54:15.926Z,33.70
2017-12-05T03:56:42.174Z,33.78
2017-12-05T03:59:08.417Z,42.78
2017-12-05T04:01:34.637Z,32.05
2017-12-05T04:04:01.650Z,36.40
2017-12-05T04:06:27.946Z,34.38
2017-12-05T04:08:54.203Z,33.03
2017-12-05T04:11:20.437Z,37.67
2017-12-05T04:13:46.677Z,32.42
2017-12-05T04:16:12.931Z,35.75
2017-12-05T04:18:39.181Z,40.35
2017-12-05T04:21:05.505Z,34.78
2017-12-05T04:23:32.500Z,37.33
2017-12-05T04:25:58.701Z,33.70
2017-12-05T04:28:26.043Z,34.35
2017-12-05T04:30:53.040Z,37.60
2017-12-05T04:33:19.280Z,35.13
2017-12-05T04:35:45.540Z,39.70
2017-12-05T04:38:11.793Z,33.97
2017-12-05T04:40:38.109Z,36.85
2017-12-05T04:43:04.355Z,34.33
2017-12-05T04:45:30.609Z,30.58
2017-12-05T04:47:56.863Z,41.05
2017-12-05T04:50:23.127Z,35.08
2017-12-05T04:52:50.124Z,36.65
2017-12-05T04:55:17.129Z,35.95
2017-12-05T04:57:43.386Z,36.88
2017-12-05T05:00:10.380Z,43.15
2017-12-05T05:02:36.688Z,43.97
2017-12-05T05:05:02.987Z,40.58
2017-12-05T05:07:29.198Z,38.40
2017-12-05T05:09:56.186Z,40.65
2017-12-05T05:12:22.774Z,33.95
2017-12-05T05:14:49.108Z,42.53
2017-12-05T05:17:15.375Z,36.78
2017-12-05T05:19:42.403Z,35.80
2017-12-05T05:22:08.661Z,40.00
2017-12-05T05:24:34.890Z,34.75
2017-12-05T05:27:01.118Z,43.45
2017-12-05T05:29:28.113Z,31.33
2017-12-05T05:31:54.347Z,37.88
2017-12-05T05:34:21.328Z,27.92
2017-12-05T05:36:48.270Z,33.25
2017-12-05T05:39:14.481Z,37.60
2017-12-05T05:41:40.729Z,37.00
2017-12-05T05:44:06.994Z,39.85
2017-12-05T05:46:33.305Z,35.00
2017-12-05T05:48:59.577Z,33.90
2017-12-05T05:51:26.950Z,33.80
2017-12-05T05:53:53.954Z,27.90
2017-12-05T05:56:20.629Z,32.38
2017-12-05T05:58:46.935Z,32.15
2017-12-05T06:01:13.175Z,31.00
2017-12-05T06:03:39.401Z,33.30
2017-12-05T06:06:05.644Z,37.90
2017-12-05T06:08:32.032Z,43.65
2017-12-05T06:10:58.280Z,30.77
2017-12-05T06:13:24.505Z,33.05
2017-12-05T06:15:53.120Z,36.22
2017-12-05T06:18:19.148Z,34.60
2017-12-05T06:20:45.393Z,37.38
2017-12-05T06:23:11.623Z,38.88
2017-12-05T06:25:37.970Z,41.50
2017-12-05T06:28:04.209Z,39.47
2017-12-05T06:30:30.482Z,31.70
2017-12-05T06:32:57.533Z,39.65
2017-12-05T06:35:23.874Z,39.33
2017-12-05T06:37:50.118Z,42.08
2017-12-05T06:40:16.342Z,45.40
2017-12-05T06:42:43.354Z,38.00
2017-12-05T06:45:11.305Z,37.20
2017-12-05T06:47:38.173Z,49.67
2017-12-05T06:50:04.947Z,43.13
2017-12-05T06:52:31.008Z,47.17
2017-12-05T06:54:57.086Z,40.12
2017-12-05T06:57:23.325Z,45.72
2017-12-05T06:59:49.836Z,54.20
2017-12-05T07:02:16.058Z,45.85
2017-12-05T07:04:43.321Z,54.55
2017-12-05T07:07:09.577Z,55.28
2017-12-05T07:09:35.870Z,49.95
2017-12-05T07:12:02.846Z,51.97
2017-12-05T07:14:29.115Z,54.83
2017-12-05T07:16:56.925Z,57.35
2017-12-05T07:19:23.198Z,49.25
2017-12-05T07:21:50.266Z,59.17
2017-12-05T07:24:16.549Z,58.65
2017-12-05T07:26:42.787Z,57.05
2017-12-05T07:29:09.000Z,58.65
2017-12-05T07:31:35.253Z,62.97
2017-12-05T07:34:01.509Z,62.62
2017-12-05T07:36:27.755Z,59.83
2017-12-05T07:38:54.799Z,65.35
2017-12-05T07:41:21.062Z,64.60
2017-12-05T07:43:47.314Z,72.50
2017-12-05T07:46:13.557Z,70.30
2017-12-05T07:48:39.809Z,70.30
2017-12-05T07:51:06.081Z,67.93
2017-12-05T07:53:33.061Z,65.20
2017-12-05T07:55:59.292Z,68.15
2017-12-05T07:58:25.533Z,74.40
2017-12-05T08:00:56.195Z,69.75
2017-12-05T08:03:22.429Z,63.00
2017-12-05T08:05:48.685Z,77.35
2017-12-05T08:08:14.913Z,68.68
2017-12-05T08:10:41.142Z,67.30
2017-12-05T08:13:07.398Z,81.00
2017-12-05T08:15:34.441Z,72.97
2017-12-05T08:18:03.842Z,75.85
2017-12-05T08:20:30.130Z,70.55
2017-12-05T08:22:56.402Z,83.47
2017-12-05T08:25:22.656Z,78.55
2017-12-05T08:27:48.901Z,75.18
2017-12-05T08:30:15.908Z,74.40
2017-12-05T08:32:43.860Z,80.50
2017-12-05T08:35:13.265Z,73.47
2017-12-05T08:37:39.457Z,73.15
2017-12-05T08:40:05.503Z,79.78
2017-12-05T08:42:31.541Z,78.37
2017-12-05T08:44:57.617Z,75.82
2017-12-05T08:47:23.658Z,85.60
2017-12-05T08:49:54.730Z,81.22
2017-12-05T08:52:21.736Z,76.22
2017-12-05T08:54:47.976Z,86.65
2017-12-05T08:57:14.227Z,76.90
2017-12-05T08:59:40.473Z,92.20
2017-12-05T09:02:07.473Z,82.93
2017-12-05T09:04:39.359Z,80.22
2017-12-05T09:07:06.245Z,75.55
2017-12-05T09:09:32.296Z,70.35
2017-12-05T09:11:58.325Z,70.18
2017-12-05T09:14:24.349Z,76.57
2017-12-05T09:16:50.391Z,72.32
2017-12-05T09:19:16.433Z,62.00
2017-12-05T09:21:46.098Z,71.60
2017-12-05T09:24:12.146Z,72.78
2017-12-05T09:26:38.186Z,74.72
2017-12-05T09:29:05.722Z,65.93
2017-12-05T09:31:31.758Z,68.68
2017-12-05T09:33:57.856Z,76.30
2017-12-05T09:36:23.861Z,70.12
2017-12-05T09:38:49.997Z,65.00
2017-12-05T09:41:34.466Z,68.12
2017-12-05T09:44:00.718Z,62.30
2017-12-05T09:46:27.182Z,64.95
2017-12-05T09:48:53.442Z,68.20
2017-12-05T09:51:24.697Z,65.40
2017-12-05T09:53:51.057Z,66.45
2017-12-05T09:56:18.065Z,64.55
2017-12-05T09:58:44.290Z,62.58
2017-12-05T10:01:10.526Z,65.82
2017-12-05T10:03:36.771Z,69.43
2017-12-05T10:06:03.029Z,64.55
2017-12-05T10:08:33.585Z,64.25
2017-12-05T10:10:59.841Z,66.37
2017-12-05T10:13:26.119Z,70.15
2017-12-05T10:15:53.167Z,60.22
2017-12-05T10:18:20.145Z,59.90
2017-12-05T10:20:46.354Z,61.85
2017-12-05T10:23:12.598Z,78.62
2017-12-05T10:25:42.929Z,61.90
2017-12-05T10:28:09.192Z,61.53
2017-12-05T10:30:35.476Z,65.05
2017-12-05T10:33:01.764Z,63.25
2017-12-05T10:35:28.014Z,63.85
2017-12-05T10:37:54.263Z,59.53
2017-12-05T10:40:20.546Z,52.73
2017-12-05T10:42:48.724Z,64.28
2017-12-05T10:45:15.017Z,73.10
2017-12-05T10:47:42.074Z,58.07
2017-12-05T10:50:08.366Z,55.35
2017-12-05T10:52:34.634Z,55.12
2017-12-05T10:55:00.873Z,61.65
2017-12-05T10:57:27.119Z,58.28
2017-12-05T10:59:53.349Z,60.38
2017-12-05T11:02:23.280Z,54.05
2017-12-05T11:04:49.590Z,59.80
2017-12-05T11:07:16.763Z,48.10
2017-12-05T11:09:43.970Z,49.30
2017-12-05T11:12:10.206Z,55.08
2017-12-05T11:14:36.453Z,47.47
2017-12-05T11:17:07.910Z,46.50
2017-12-05T11:19:34.186Z,46.15
2017-12-05T11:22:00.430Z,53.38
2017-12-05T11:24:26.677Z,43.83
2017-12-05T11:26:52.914Z,46.70
2017-12-05T11:29:19.166Z,47.10
2017-12-05T11:31:45.395Z,47.88
2017-12-05T11:34:11.628Z,50.55
2017-12-05T11:36:39.431Z,42.47
2017-12-05T11:39:06.515Z,41.45
2017-12-05T11:41:33.522Z,41.65
2017-12-05T11:43:59.783Z,44.97
2017-12-05T11:46:26.046Z,41.25
2017-12-05T11:48:53.069Z,43.40
2017-12-05T11:51:24.159Z,43.83
2017-12-05T11:53:50.469Z,38.70
2017-12-05T11:56:16.748Z,38.80
2017-12-05T11:58:43.046Z,48.85
2017-12-05T12:01:09.306Z,43.90
2017-12-05T12:03:35.545Z,37.75
2017-12-05T12:06:01.799Z,46.65
2017-12-05T12:08:30.710Z,43.28
2017-12-05T12:10:56.974Z,37.30
2017-12-05T12:13:23.978Z,41.00
2017-12-05T12:15:50.233Z,38.50
2017-12-05T12:18:16.490Z,37.10
2017-12-05T12:20:42.750Z,34.15
2017-12-05T12:23:09.005Z,41.83
2017-12-05T12:25:38.830Z,41.80
2017-12-05T12:28:05.971Z,36.10
2017-12-05T12:30:32.237Z,34.17
2017-12-05T12:32:58.460Z,35.75
2017-12-05T12:35:24.718Z,42.37
2017-12-05T12:37:50.962Z,39.58
2017-12-05T12:40:17.222Z,34.63
2017-12-05T12:42:47.255Z,39.10
2017-12-05T12:45:14.266Z,36.00
2017-12-05T12:47:40.530Z,39.35
2017-12-05T12:50:06.806Z,39.85
2017-12-05T12:52:33.798Z,32.55
2017-12-05T12:55:00.058Z,32.08
2017-12-05T12:57:26.374Z,40.80
2017-12-05T12:59:58.911Z,41.88
2017-12-05T13:02:25.137Z,34.30
2017-12-05T13:04:51.390Z,36.88
2017-12-05T13:07:17.695Z,33.78
2017-12-05T13:09:44.057Z,34.45
2017-12-05T13:12:10.322Z,30.55
2017-12-05T13:14:36.639Z,33.42
2017-12-05T13:17:08.066Z,28.95
2017-12-05T13:19:34.322Z,32.72
2017-12-05T13:22:01.277Z,29.10
2017-12-05T13:24:28.325Z,28.15
2017-12-05T13:26:55.318Z,34.45
2017-12-05T13:29:21.628Z,35.88
2017-12-05T13:31:49.706Z,32.30
2017-12-05T13:34:17.784Z,32.13
2017-12-05T13:36:44.023Z,28.92
2017-12-05T13:39:10.262Z,30.35
2017-12-05T13:41:37.266Z,33.08
2017-12-05T13:44:03.574Z,36.22
2017-12-05T13:46:30.594Z,39.10
2017-12-05T13:49:00.102Z,31.65
2017-12-05T13:51:26.362Z,32.30
2017-12-05T13:53:52.674Z,27.10
2017-12-05T13:56:18.946Z,32.95
2017-12-05T13:58:45.189Z,30.40
2017-12-05T14:01:11.452Z,37.70
2017-12-05T14:03:37.807Z,29.73
2017-12-05T14:06:06.471Z,29.60
2017-12-05T14:08:32.719Z,31.27
2017-12-05T14:10:59.005Z,36.72
2017-12-05T14:13:25.241Z,32.10
2017-12-05T14:15:51.505Z,32.00
2017-12-05T14:18:18.509Z,32.20
2017-12-05T14:20:44.772Z,29.42
2017-12-05T14:23:12.928Z,28.10
2017-12-05T14:25:39.226Z,26.53
2017-12-05T14:28:05.471Z,34.53
2017-12-05T14:30:32.507Z,33.03
2017-12-05T14:32:58.726Z,27.75
2017-12-05T14:35:24.967Z,34.07
2017-12-05T14:37:51.241Z,32.40
2017-12-05T14:40:17.497Z,29.87
2017-12-05T14:42:46.922Z,25.12
2017-12-05T14:45:13.205Z,27.52
2017-12-05T14:47:40.200Z,28.20
2017-12-05T14:50:06.471Z,27.17
2017-12-05T14:52:33.498Z,27.25
2017-12-05T14:54:59.766Z,28.95
2017-12-05T14:57:26.026Z,30.58
2017-12-05T14:59:52.274Z,28.20
2017-12-05T15:02:18.547Z,31.45
2017-12-05T15:04:44.805Z,28.75
2017-12-05T15:07:11.160Z,25.62
2017-12-05T15:09:37.405Z,30.33
2017-12-05T15:12:03.718Z,29.45
2017-12-05T15:14:30.574Z,26.42
2017-12-05T15:16:57.618Z,28.40
2017-12-05T15:19:24.618Z,28.57
2017-12-05T15:21:50.886Z,27.60
2017-12-05T15:24:17.153Z,24.23
2017-12-05T15:26:43.490Z,23.40
2017-12-05T15:29:09.767Z,25.33
2017-12-05T15:31:36.215Z,23.92
2017-12-05T15:34:02.517Z,29.55
2017-12-05T15:36:28.794Z,22.62
2017-12-05T15:38:55.047Z,26.10
2017-12-05T15:41:21.286Z,27.70
2017-12-05T15:43:48.242Z,22.10
2017-12-05T15:46:14.537Z,28.08
2017-12-05T15:48:40.911Z,26.65
2017-12-05T15:51:07.306Z,22.70
2017-12-05T15:53:34.385Z,27.80
2017-12-05T15:56:00.738Z,24.98
2017-12-05T15:58:26.999Z,25.37
2017-12-05T16:00:53.270Z,20.65
2017-12-05T16:03:19.531Z,22.55
2017-12-05T16:05:45.925Z,27.20
2017-12-05T16:08:12.946Z,26.30
2017-12-05T16:10:39.238Z,21.12
2017-12-05T16:13:06.201Z,27.03
2017-12-05T16:15:35.284Z,22.37
2017-12-05T16:18:01.534Z,25.08
2017-12-05T16:20:28.538Z,23.62
2017-12-05T16:22:54.810Z,29.83
2017-12-05T16:25:21.049Z,25.95
2017-12-05T16:27:48.121Z,25.67
2017-12-05T16:30:15.113Z,24.87
2017-12-05T16:32:41.401Z,26.33
2017-12-05T16:35:07.649Z,24.87
2017-12-05T16:37:33.921Z,25.60
2017-12-05T16:40:00.809Z,24.63
2017-12-05T16:42:27.045Z,23.65
2017-12-05T16:44:53.299Z,24.52
2017-12-05T16:47:19.558Z,24.23
2017-12-05T16:49:45.813Z,24.80
2017-12-05T16:52:12.073Z,24.17
2017-12-05T16:54:38.467Z,24.63
2017-12-05T16:57:05.365Z,29.73
2017-12-05T16:59:32.368Z,20.23
2017-12-05T17:01:58.703Z,22.95
2017-12-05T17:04:25.006Z,29.20
2017-12-05T17:06:51.378Z,27.13
2017-12-05T17:09:18.439Z,26.93
2017-12-05T17:11:44.754Z,28.43
2017-12-05T17:14:11.853Z,25.75
2017-12-05T17:16:38.159Z,21.80
2017-12-05T17:19:04.514Z,23.62
2017-12-05T17:21:30.753Z,29.05
2017-12-05T17:23:56.982Z,27.98
2017-12-05T17:26:23.258Z,23.42
2017-12-05T17:28:49.535Z,22.92
2017-12-05T17:31:15.818Z,24.15
2017-12-05T17:33:42.054Z,22.27
2017-12-05T17:36:09.094Z,29.10
2017-12-05T17:38:37.906Z,24.02
2017-12-05T17:41:04.615Z,24.00
2017-12-05T17:43:31.575Z,22.05
2017-12-05T17:45:57.846Z,22.55
2017-12-05T17:48:24.890Z,28.50
2017-12-05T17:50:51.162Z,29.45
2017-12-05T17:53:18.141Z,25.60
2017-12-05T17:55:47.797Z,22.73
2017-12-05T17:58:14.110Z,24.42
2017-12-05T18:00:40.397Z,23.35
2017-12-05T18:03:07.386Z,21.65
2017-12-05T18:05:33.673Z,24.73
2017-12-05T18:07:59.922Z,21.85
2017-12-05T18:10:26.934Z,24.83
2017-12-05T18:12:56.251Z,22.83
2017-12-05T18:15:22.490Z,22.40
2017-12-05T18:17:48.751Z,22.37
2017-12-05T18:20:15.006Z,26.27
2017-12-05T18:22:41.238Z,22.52
2017-12-05T18:25:07.490Z,26.10
2017-12-05T18:27:33.729Z,18.90
2017-12-05T18:29:59.975Z,22.67
2017-12-05T18:32:31.148Z,22.63
2017-12-05T18:34:57.406Z,22.97
2017-12-05T18:37:24.398Z,28.80
2017-12-05T18:39:51.386Z,23.15
2017-12-05T18:42:17.649Z,23.17
2017-12-05T18:44:43.874Z,22.95
2017-12-05T18:47:10.122Z,21.30
2017-12-05T18:49:39.962Z,22.43
2017-12-05T18:52:06.410Z,23.60
2017-12-05T18:54:32.650Z,21.73
2017-12-05T18:56:58.902Z,32.33
2017-12-05T18:59:25.147Z,28.55
2017-12-05T19:01:51.398Z,27.10
2017-12-05T19:04:17.654Z,21.02
2017-12-05T19:06:44.645Z,25.23
2017-12-05T19:09:12.616Z,23.87
2017-12-05T19:11:38.921Z,22.37
2017-12-05T19:14:05.193Z,21.45
2017-12-05T19:16:31.455Z,26.90
2017-12-05T19:18:58.431Z,25.90
2017-12-05T19:21:24.722Z,22.27
2017-12-05T19:23:51.721Z,20.33
2017-12-05T19:26:17.988Z,25.67
2017-12-05T19:28:47.585Z,27.65
2017-12-05T19:31:13.991Z,22.98
2017-12-05T19:33:40.335Z,21.48
2017-12-05T19:36:06.555Z,21.27
2017-12-05T19:38:33.586Z,23.77
2017-12-05T19:40:59.897Z,23.08
2017-12-05T19:43:26.151Z,24.00
2017-12-05T19:45:58.034Z,24.60
2017-12-05T19:48:24.327Z,23.58
2017-12-05T19:50:51.376Z,19.50
2017-12-05T19:53:17.630Z,24.90
2017-12-05T19:55:43.878Z,24.83
2017-12-05T19:58:10.918Z,21.02
2017-12-05T20:00:37.150Z,23.20
2017-12-05T20:03:10.028Z,22.75
2017-12-05T20:05:37.034Z,21.95
2017-12-05T20:08:03.274Z,19.70
2017-12-05T20:10:29.500Z,21.45
2017-12-05T20:12:55.802Z,17.77
2017-12-05T20:15:22.045Z,18.25
2017-12-05T20:17:49.029Z,22.45
2017-12-05T20:20:18.161Z,18.87
2017-12-05T20:22:44.802Z,22.10
2017-12-05T20:25:11.070Z,19.83
2017-12-05T20:27:38.047Z,20.37
2017-12-05T20:30:04.281Z,19.12
2017-12-05T20:32:30.534Z,19.60
2017-12-05T20:34:56.753Z,27.17
2017-12-05T20:37:29.111Z,17.73
2017-12-05T20:39:55.337Z,21.73
2017-12-05T20:42:21.582Z,24.77
2017-12-05T20:44:47.861Z,21.98
2017-12-05T20:47:14.874Z,21.30
2017-12-05T20:49:41.157Z,18.83
2017-12-05T20:52:07.414Z,19.65
2017-12-05T20:54:34.417Z,19.05
2017-12-05T20:57:03.611Z,19.27
2017-12-05T20:59:29.910Z,17.40
2017-12-05T21:01:56.158Z,17.15
2017-12-05T21:04:23.143Z,21.02
2017-12-05T21:06:49.361Z,17.00
2017-12-05T21:09:15.595Z,19.08
2017-12-05T21:11:41.841Z,14.82
2017-12-05T21:14:08.886Z,17.00
2017-12-05T21:16:35.874Z,15.52
2017-12-05T21:19:02.201Z,17.20
2017-12-05T21:21:29.254Z,19.25
2017-12-05T21:23:55.519Z,14.18
2017-12-05T21:26:21.764Z,18.05
2017-12-05T21:28:48.737Z,16.27
2017-12-05T21:31:18.254Z,17.17
2017-12-05T21:33:45.228Z,13.05
2017-12-05T21:36:11.479Z,18.33
2017-12-05T21:38:38.478Z,16.00
2017-12-05T21:41:05.530Z,16.85
2017-12-05T21:43:31.748Z,14.60
2017-12-05T21:45:58.821Z,15.90
2017-12-05T21:48:25.048Z,17.35
2017-12-05T21:50:51.550Z,15.45
2017-12-05T21:53:19.589Z,14.87
2017-12-05T21:55:45.962Z,16.27
2017-12-05T21:58:12.183Z,16.33
2017-12-05T22:00:38.573Z,15.40
2017-12-05T22:03:05.842Z,16.87
2017-12-05T22:05:32.110Z,15.77
2017-12-05T22:07:58.381Z,13.45
2017-12-05T22:10:25.389Z,16.25
2017-12-05T22:12:51.630Z,14.10
2017-12-05T22:15:17.889Z,15.05
2017-12-05T22:17:44.151Z,15.68
2017-12-05T22:20:10.386Z,16.42
2017-12-05T22:22:37.358Z,16.10
2017-12-05T22:25:03.685Z,14.30
2017-12-05T22:27:29.946Z,14.15
2017-12-05T22:29:56.177Z,19.08
2017-12-05T22:32:23.185Z,15.05
2017-12-05T22:34:50.150Z,17.30
2017-12-05T22:37:16.377Z,16.45
2017-12-05T22:39:42.655Z,14.30
2017-12-05T22:42:08.930Z,15.32
2017-12-05T22:44:35.927Z,14.98
2017-12-05T22:47:02.299Z,15.07
2017-12-05T22:49:28.528Z,14.87
2017-12-05T22:51:54.781Z,16.02
2017-12-05T22:54:22.488Z,16.17
2017-12-05T22:56:48.835Z,15.93
2017-12-05T22:59:15.079Z,15.52
2017-12-05T23:01:42.066Z,18.42
2017-12-05T23:04:08.301Z,20.00
2017-12-05T23:06:34.691Z,14.80
2017-12-05T23:09:00.940Z,19.57
2017-12-05T23:11:27.163Z,16.83
2017-12-05T23:13:53.491Z,15.98
2017-12-05T23:16:19.765Z,15.57
2017-12-05T23:18:47.037Z,14.85
2017-12-05T23:21:13.266Z,14.68
2017-12-05T23:23:39.522Z,15.65
2017-12-05T23:26:06.504Z,14.95
2017-12-05T23:28:32.770Z,15.18
2017-12-05T23:30:58.997Z,13.90
2017-12-05T23:33:25.944Z,14.40
2017-12-05T23:35:52.139Z,17.08
2017-12-05T23:38:18.336Z,15.73
2017-12-05T23:40:45.287Z,14.85
2017-12-05T23:43:12.362Z,14.75
2017-12-05T23:45:38.563Z,14.90
2017-12-05T23:48:06.030Z,15.60
2017-12-05T23:50:32.262Z,18.65
2017-12-05T23:52:58.486Z,15.85
2017-12-05T23:55:24.710Z,14.23
2017-12-05T23:57:50.941Z,16.67
